sensor_id;sensor_type;location;lat;lon;timestamp;P1;durP1;ratioP1;P2;durP2;ratioP2
22308;SDS011;11322;50.858;-1.778;2022-10-23T00:00:34;4.7;;;1.6;;
22308;SDS011;11322;50.858;-1.778;2022-10-23T00:05:37;4.65;;;0.95;;
22308;SDS011;11322;50.858;-1.778;2022-10-23T00:10:34;8.5;;;2.2;;
22308;SDS011;11322;50.858;-1.778;2022-10-23T00:15:34;7.1;;;1.7;;
22308;SDS011;11322;50.858;-1.778;2022-10-23T00:20:34;9.8;;;1.3;;
22308;SDS011;11322;50.858;-1.778;2022-10-23T00:25:34;5.25;;;1.5;;
22308;SDS011;11322;50.858;-1.778;2022-10-23T00:30:34;1.4;;;1.15;;
22308;SDS011;11322;50.858;-1.778;2022-10-23T00:35:34;3.95;;;1.3;;
22308;SDS011;11322;50.858;-1.778;2022-10-23T00:40:34;3.7;;;1.5;;
22308;SDS011;11322;50.858;-1.778;2022-10-23T00:45:34;14.8;;;2.2;;
22308;SDS011;11322;50.858;-1.778;2022-10-23T00:50:34;3.65;;;1.4;;
22308;SDS011;11322;50.858;-1.778;2022-10-23T00:55:34;11.2;;;1.5;;
22308;SDS011;11322;50.858;-1.778;2022-10-23T01:00:40;6.85;;;1.3;;
22308;SDS011;11322;50.858;-1.778;2022-10-23T01:05:35;6.3;;;2.05;;
22308;SDS011;11322;50.858;-1.778;2022-10-23T01:10:35;1.85;;;1.5;;
22308;SDS011;11322;50.858;-1.778;2022-10-23T01:15:35;2.5;;;1.85;;
22308;SDS011;11322;50.858;-1.778;2022-10-23T01:20:37;6.1;;;1.55;;
22308;SDS011;11322;50.858;-1.778;2022-10-23T01:25:38;5.65;;;1.95;;
22308;SDS011;11322;50.858;-1.778;2022-10-23T01:30:34;4.7;;;2.2;;
22308;SDS011;11322;50.858;-1.778;2022-10-23T01:35:35;5.2;;;1.75;;
22308;SDS011;11322;50.858;-1.778;2022-10-23T01:40:36;2.05;;;1.4;;
22308;SDS011;11322;50.858;-1.778;2022-10-23T01:45:35;5.75;;;1.7;;
22308;SDS011;11322;50.858;-1.778;2022-10-23T01:50:34;2.6;;;1.6;;
22308;SDS011;11322;50.858;-1.778;2022-10-23T01:55:34;8.1;;;1.7;;
22308;SDS011;11322;50.858;-1.778;2022-10-23T02:00:34;1.55;;;1.2;;
22308;SDS011;11322;50.858;-1.778;2022-10-23T02:05:34;5.3;;;1.65;;
22308;SDS011;11322;50.858;-1.778;2022-10-23T02:10:38;6.8;;;1.95;;
22308;SDS011;11322;50.858;-1.778;2022-10-23T02:15:35;3.9;;;1.5;;
22308;SDS011;11322;50.858;-1.778;2022-10-23T02:20:36;3.4;;;1.8;;
22308;SDS011;11322;50.858;-1.778;2022-10-23T02:25:35;8.3;;;1.7;;
22308;SDS011;11322;50.858;-1.778;2022-10-23T02:30:34;8.65;;;1.85;;
22308;SDS011;11322;50.858;-1.778;2022-10-23T02:35:34;4.75;;;1.2;;
22308;SDS011;11322;50.858;-1.778;2022-10-23T02:40:34;6.5;;;2.1;;
22308;SDS011;11322;50.858;-1.778;2022-10-23T02:45:35;4.9;;;1.65;;
22308;SDS011;11322;50.858;-1.778;2022-10-23T02:50:35;7.75;;;1.55;;
22308;SDS011;11322;50.858;-1.778;2022-10-23T02:55:38;1.35;;;1.1;;
22308;SDS011;11322;50.858;-1.778;2022-10-23T03:00:36;6.3;;;1.65;;
22308;SDS011;11322;50.858;-1.778;2022-10-23T03:05:34;7.65;;;1.85;;
22308;SDS011;11322;50.858;-1.778;2022-10-23T03:10:34;6.3;;;1.45;;
22308;SDS011;11322;50.858;-1.778;2022-10-23T03:15:34;6.65;;;1.3;;
22308;SDS011;11322;50.858;-1.778;2022-10-23T03:20:34;4.65;;;1.5;;
22308;SDS011;11322;50.858;-1.778;2022-10-23T03:25:34;10.0;;;1.6;;
22308;SDS011;11322;50.858;-1.778;2022-10-23T03:30:34;8.4;;;1.5;;
22308;SDS011;11322;50.858;-1.778;2022-10-23T03:35:34;3.9;;;1.65;;
22308;SDS011;11322;50.858;-1.778;2022-10-23T03:40:34;6.7;;;1.4;;
22308;SDS011;11322;50.858;-1.778;2022-10-23T03:45:34;3.7;;;1.85;;
22308;SDS011;11322;50.858;-1.778;2022-10-23T03:50:34;4.05;;;1.3;;
22308;SDS011;11322;50.858;-1.778;2022-10-23T03:55:34;1.9;;;0.8;;
22308;SDS011;11322;50.858;-1.778;2022-10-23T04:00:34;1.65;;;1.0;;
22308;SDS011;11322;50.858;-1.778;2022-10-23T04:05:34;3.95;;;1.4;;
22308;SDS011;11322;50.858;-1.778;2022-10-23T04:10:34;4.7;;;1.7;;
22308;SDS011;11322;50.858;-1.778;2022-10-23T04:15:34;5.25;;;1.5;;
22308;SDS011;11322;50.858;-1.778;2022-10-23T04:20:34;1.55;;;1.15;;
22308;SDS011;11322;50.858;-1.778;2022-10-23T04:25:34;7.05;;;1.45;;
22308;SDS011;11322;50.858;-1.778;2022-10-23T04:30:34;2.55;;;0.95;;
22308;SDS011;11322;50.858;-1.778;2022-10-23T04:35:34;7.0;;;1.15;;
22308;SDS011;11322;50.858;-1.778;2022-10-23T04:40:34;2.75;;;0.95;;
22308;SDS011;11322;50.858;-1.778;2022-10-23T04:45:34;7.6;;;1.6;;
22308;SDS011;11322;50.858;-1.778;2022-10-23T04:50:34;1.4;;;0.6;;
22308;SDS011;11322;50.858;-1.778;2022-10-23T04:55:34;3.75;;;0.85;;
22308;SDS011;11322;50.858;-1.778;2022-10-23T05:00:34;2.8;;;1.3;;
22308;SDS011;11322;50.858;-1.778;2022-10-23T05:05:34;3.5;;;1.4;;
22308;SDS011;11322;50.858;-1.778;2022-10-23T05:10:34;4.05;;;2.1;;
22308;SDS011;11322;50.858;-1.778;2022-10-23T05:15:34;1.1;;;0.9;;
22308;SDS011;11322;50.858;-1.778;2022-10-23T05:20:34;3.85;;;1.25;;
22308;SDS011;11322;50.858;-1.778;2022-10-23T05:25:34;6.6;;;1.55;;
22308;SDS011;11322;50.858;-1.778;2022-10-23T05:30:34;2.5;;;1.35;;
22308;SDS011;11322;50.858;-1.778;2022-10-23T05:35:34;11.65;;;1.65;;
22308;SDS011;11322;50.858;-1.778;2022-10-23T05:40:34;3.25;;;1.5;;
22308;SDS011;11322;50.858;-1.778;2022-10-23T05:45:34;6.0;;;1.2;;
22308;SDS011;11322;50.858;-1.778;2022-10-23T05:50:34;1.35;;;1.1;;
22308;SDS011;11322;50.858;-1.778;2022-10-23T05:55:34;6.5;;;2.1;;
22308;SDS011;11322;50.858;-1.778;2022-10-23T06:00:34;1.65;;;1.3;;
22308;SDS011;11322;50.858;-1.778;2022-10-23T06:05:34;5.35;;;1.75;;
22308;SDS011;11322;50.858;-1.778;2022-10-23T06:10:34;6.4;;;1.05;;
22308;SDS011;11322;50.858;-1.778;2022-10-23T06:15:34;2.35;;;1.0;;
22308;SDS011;11322;50.858;-1.778;2022-10-23T06:20:34;5.4;;;1.1;;
22308;SDS011;11322;50.858;-1.778;2022-10-23T06:25:34;3.85;;;0.7;;
22308;SDS011;11322;50.858;-1.778;2022-10-23T06:30:34;4.5;;;1.75;;
22308;SDS011;11322;50.858;-1.778;2022-10-23T06:35:34;1.85;;;0.95;;
22308;SDS011;11322;50.858;-1.778;2022-10-23T06:40:34;7.7;;;0.95;;
22308;SDS011;11322;50.858;-1.778;2022-10-23T06:45:34;6.8;;;1.05;;
22308;SDS011;11322;50.858;-1.778;2022-10-23T06:50:35;2.65;;;1.0;;
22308;SDS011;11322;50.858;-1.778;2022-10-23T06:55:34;3.95;;;1.1;;
22308;SDS011;11322;50.858;-1.778;2022-10-23T07:00:34;3.75;;;0.65;;
22308;SDS011;11322;50.858;-1.778;2022-10-23T07:05:34;0.6;;;0.6;;
22308;SDS011;11322;50.858;-1.778;2022-10-23T07:10:34;2.95;;;0.7;;
22308;SDS011;11322;50.858;-1.778;2022-10-23T07:15:34;3.2;;;0.8;;
22308;SDS011;11322;50.858;-1.778;2022-10-23T07:20:34;10.1;;;0.95;;
22308;SDS011;11322;50.858;-1.778;2022-10-23T07:25:34;3.85;;;1.0;;
22308;SDS011;11322;50.858;-1.778;2022-10-23T07:30:34;3.4;;;0.9;;
22308;SDS011;11322;50.858;-1.778;2022-10-23T07:35:34;1.95;;;0.9;;
22308;SDS011;11322;50.858;-1.778;2022-10-23T07:40:34;2.25;;;1.1;;
22308;SDS011;11322;50.858;-1.778;2022-10-23T07:45:34;2.5;;;1.05;;
22308;SDS011;11322;50.858;-1.778;2022-10-23T07:50:36;2.8;;;1.3;;
22308;SDS011;11322;50.858;-1.778;2022-10-23T07:55:34;6.25;;;1.3;;
22308;SDS011;11322;50.858;-1.778;2022-10-23T08:00:34;5.5;;;1.2;;
22308;SDS011;11322;50.858;-1.778;2022-10-23T08:05:34;6.0;;;1.7;;
22308;SDS011;11322;50.858;-1.778;2022-10-23T08:10:34;6.2;;;1.4;;
22308;SDS011;11322;50.858;-1.778;2022-10-23T08:15:34;4.1;;;1.55;;
22308;SDS011;11322;50.858;-1.778;2022-10-23T08:20:37;8.3;;;1.4;;
22308;SDS011;11322;50.858;-1.778;2022-10-23T08:25:34;1.7;;;0.9;;
22308;SDS011;11322;50.858;-1.778;2022-10-23T08:30:34;2.45;;;0.6;;
22308;SDS011;11322;50.858;-1.778;2022-10-23T08:35:34;6.3;;;1.45;;
22308;SDS011;11322;50.858;-1.778;2022-10-23T08:40:34;7.65;;;1.0;;
22308;SDS011;11322;50.858;-1.778;2022-10-23T08:45:35;4.6;;;0.8;;
22308;SDS011;11322;50.858;-1.778;2022-10-23T08:50:35;3.7;;;0.75;;
22308;SDS011;11322;50.858;-1.778;2022-10-23T08:55:35;3.55;;;1.15;;
22308;SDS011;11322;50.858;-1.778;2022-10-23T09:00:34;10.65;;;1.2;;
22308;SDS011;11322;50.858;-1.778;2022-10-23T09:05:35;8.5;;;1.5;;
22308;SDS011;11322;50.858;-1.778;2022-10-23T09:10:37;2.35;;;0.7;;
22308;SDS011;11322;50.858;-1.778;2022-10-23T09:15:34;1.5;;;0.75;;
22308;SDS011;11322;50.858;-1.778;2022-10-23T09:20:34;3.65;;;0.8;;
22308;SDS011;11322;50.858;-1.778;2022-10-23T09:25:36;1.7;;;0.4;;
22308;SDS011;11322;50.858;-1.778;2022-10-23T09:30:34;0.5;;;0.35;;
22308;SDS011;11322;50.858;-1.778;2022-10-23T09:35:34;1.15;;;0.3;;
22308;SDS011;11322;50.858;-1.778;2022-10-23T09:40:36;0.85;;;0.5;;
22308;SDS011;11322;50.858;-1.778;2022-10-23T09:45:34;0.4;;;0.3;;
22308;SDS011;11322;50.858;-1.778;2022-10-23T09:50:34;0.8;;;0.35;;
22308;SDS011;11322;50.858;-1.778;2022-10-23T09:55:34;1.1;;;0.6;;
22308;SDS011;11322;50.858;-1.778;2022-10-23T10:00:34;0.2;;;0.2;;
22308;SDS011;11322;50.858;-1.778;2022-10-23T10:00:46;0.2;;;0.2;;
22308;SDS011;11322;50.858;-1.778;2022-10-23T10:05:34;0.6;;;0.25;;
22308;SDS011;11322;50.858;-1.778;2022-10-23T10:10:34;0.4;;;0.3;;
22308;SDS011;11322;50.858;-1.778;2022-10-23T10:15:36;1.6;;;0.5;;
22308;SDS011;11322;50.858;-1.778;2022-10-23T10:20:38;3.85;;;0.6;;
22308;SDS011;11322;50.858;-1.778;2022-10-23T10:25:35;1.0;;;0.2;;
22308;SDS011;11322;50.858;-1.778;2022-10-23T10:30:36;2.65;;;0.3;;
22308;SDS011;11322;50.858;-1.778;2022-10-23T10:35:36;5.65;;;0.45;;
22308;SDS011;11322;50.858;-1.778;2022-10-23T10:40:34;4.25;;;0.8;;
22308;SDS011;11322;50.858;-1.778;2022-10-23T10:45:36;2.2;;;0.6;;
22308;SDS011;11322;50.858;-1.778;2022-10-23T10:50:36;0.2;;;0.2;;
22308;SDS011;11322;50.858;-1.778;2022-10-23T10:55:35;0.65;;;0.4;;
22308;SDS011;11322;50.858;-1.778;2022-10-23T11:00:34;4.15;;;0.5;;
22308;SDS011;11322;50.858;-1.778;2022-10-23T11:05:35;2.0;;;0.55;;
22308;SDS011;11322;50.858;-1.778;2022-10-23T11:10:34;3.25;;;0.3;;
22308;SDS011;11322;50.858;-1.778;2022-10-23T11:15:36;5.1;;;0.45;;
22308;SDS011;11322;50.858;-1.778;2022-10-23T11:20:37;2.6;;;0.9;;
22308;SDS011;11322;50.858;-1.778;2022-10-23T11:25:41;3.7;;;0.5;;
22308;SDS011;11322;50.858;-1.778;2022-10-23T11:30:35;1.2;;;0.6;;
22308;SDS011;11322;50.858;-1.778;2022-10-23T11:35:40;1.2;;;0.4;;
22308;SDS011;11322;50.858;-1.778;2022-10-23T11:40:34;2.45;;;0.35;;
22308;SDS011;11322;50.858;-1.778;2022-10-23T11:45:35;2.0;;;0.4;;
22308;SDS011;11322;50.858;-1.778;2022-10-23T11:50:48;1.8;;;0.4;;
22308;SDS011;11322;50.858;-1.778;2022-10-23T11:50:50;1.8;;;0.4;;
22308;SDS011;11322;50.858;-1.778;2022-10-23T11:55:34;1.5;;;0.35;;
22308;SDS011;11322;50.858;-1.778;2022-10-23T12:00:37;1.05;;;0.3;;
22308;SDS011;11322;50.858;-1.778;2022-10-23T12:05:34;1.3;;;0.55;;
22308;SDS011;11322;50.858;-1.778;2022-10-23T12:11:45;5.0;;;0.9;;
22308;SDS011;11322;50.858;-1.778;2022-10-23T12:15:34;1.15;;;0.75;;
22308;SDS011;11322;50.858;-1.778;2022-10-23T12:20:35;0.75;;;0.5;;
22308;SDS011;11322;50.858;-1.778;2022-10-23T12:25:36;5.95;;;1.0;;
22308;SDS011;11322;50.858;-1.778;2022-10-23T12:30:35;1.6;;;0.5;;
22308;SDS011;11322;50.858;-1.778;2022-10-23T12:35:43;3.15;;;0.6;;
22308;SDS011;11322;50.858;-1.778;2022-10-23T12:40:34;2.55;;;1.0;;
22308;SDS011;11322;50.858;-1.778;2022-10-23T12:45:35;3.0;;;1.4;;
22308;SDS011;11322;50.858;-1.778;2022-10-23T12:50:34;2.75;;;1.35;;
22308;SDS011;11322;50.858;-1.778;2022-10-23T12:55:44;6.35;;;1.9;;
22308;SDS011;11322;50.858;-1.778;2022-10-23T13:00:34;0.8;;;0.3;;
22308;SDS011;11322;50.858;-1.778;2022-10-23T13:05:34;0.8;;;0.5;;
22308;SDS011;11322;50.858;-1.778;2022-10-23T13:10:34;5.5;;;0.7;;
22308;SDS011;11322;50.858;-1.778;2022-10-23T13:15:36;1.55;;;0.85;;
22308;SDS011;11322;50.858;-1.778;2022-10-23T13:20:34;0.9;;;0.3;;
22308;SDS011;11322;50.858;-1.778;2022-10-23T13:25:35;0.4;;;0.35;;
22308;SDS011;11322;50.858;-1.778;2022-10-23T13:30:35;6.7;;;0.8;;
22308;SDS011;11322;50.858;-1.778;2022-10-23T13:35:34;3.95;;;0.75;;
22308;SDS011;11322;50.858;-1.778;2022-10-23T13:40:34;3.0;;;0.85;;
22308;SDS011;11322;50.858;-1.778;2022-10-23T13:45:34;3.2;;;0.5;;
22308;SDS011;11322;50.858;-1.778;2022-10-23T13:50:34;1.9;;;0.8;;
22308;SDS011;11322;50.858;-1.778;2022-10-23T13:55:34;4.05;;;0.8;;
22308;SDS011;11322;50.858;-1.778;2022-10-23T14:00:34;5.8;;;0.9;;
22308;SDS011;11322;50.858;-1.778;2022-10-23T14:05:34;3.95;;;1.0;;
22308;SDS011;11322;50.858;-1.778;2022-10-23T14:10:34;3.2;;;0.95;;
22308;SDS011;11322;50.858;-1.778;2022-10-23T14:15:34;1.65;;;0.9;;
22308;SDS011;11322;50.858;-1.778;2022-10-23T14:20:34;2.7;;;1.3;;
22308;SDS011;11322;50.858;-1.778;2022-10-23T14:25:34;1.15;;;1.1;;
22308;SDS011;11322;50.858;-1.778;2022-10-23T14:30:34;4.4;;;0.9;;
22308;SDS011;11322;50.858;-1.778;2022-10-23T14:35:36;3.85;;;1.0;;
22308;SDS011;11322;50.858;-1.778;2022-10-23T14:40:35;2.6;;;1.05;;
22308;SDS011;11322;50.858;-1.778;2022-10-23T14:45:34;1.25;;;1.1;;
22308;SDS011;11322;50.858;-1.778;2022-10-23T14:50:34;0.4;;;0.4;;
22308;SDS011;11322;50.858;-1.778;2022-10-23T14:55:34;2.2;;;0.8;;
22308;SDS011;11322;50.858;-1.778;2022-10-23T15:00:34;0.3;;;0.3;;
22308;SDS011;11322;50.858;-1.778;2022-10-23T15:05:34;0.45;;;0.3;;
22308;SDS011;11322;50.858;-1.778;2022-10-23T15:10:35;0.8;;;0.6;;
22308;SDS011;11322;50.858;-1.778;2022-10-23T15:15:34;2.4;;;1.0;;
22308;SDS011;11322;50.858;-1.778;2022-10-23T15:20:34;3.1;;;0.6;;
22308;SDS011;11322;50.858;-1.778;2022-10-23T15:25:34;6.25;;;1.0;;
22308;SDS011;11322;50.858;-1.778;2022-10-23T15:30:34;4.7;;;0.8;;
22308;SDS011;11322;50.858;-1.778;2022-10-23T15:35:34;11.2;;;1.05;;
22308;SDS011;11322;50.858;-1.778;2022-10-23T15:40:34;5.8;;;1.2;;
22308;SDS011;11322;50.858;-1.778;2022-10-23T15:45:34;3.0;;;1.25;;
22308;SDS011;11322;50.858;-1.778;2022-10-23T15:50:34;6.75;;;1.5;;
22308;SDS011;11322;50.858;-1.778;2022-10-23T15:55:34;5.6;;;0.75;;
22308;SDS011;11322;50.858;-1.778;2022-10-23T16:00:34;3.6;;;1.1;;
22308;SDS011;11322;50.858;-1.778;2022-10-23T16:05:34;4.0;;;1.35;;
22308;SDS011;11322;50.858;-1.778;2022-10-23T16:10:37;9.5;;;2.3;;
22308;SDS011;11322;50.858;-1.778;2022-10-23T16:15:34;4.05;;;0.9;;
22308;SDS011;11322;50.858;-1.778;2022-10-23T16:20:34;2.65;;;0.9;;
22308;SDS011;11322;50.858;-1.778;2022-10-23T16:25:34;4.75;;;0.7;;
22308;SDS011;11322;50.858;-1.778;2022-10-23T16:30:38;6.45;;;1.15;;
22308;SDS011;11322;50.858;-1.778;2022-10-23T16:35:34;2.75;;;1.4;;
22308;SDS011;11322;50.858;-1.778;2022-10-23T16:40:34;4.2;;;1.8;;
22308;SDS011;11322;50.858;-1.778;2022-10-23T16:45:34;8.15;;;1.65;;
22308;SDS011;11322;50.858;-1.778;2022-10-23T16:50:36;2.05;;;1.1;;
22308;SDS011;11322;50.858;-1.778;2022-10-23T16:55:34;1.5;;;1.25;;
22308;SDS011;11322;50.858;-1.778;2022-10-23T17:00:34;3.75;;;2.0;;
22308;SDS011;11322;50.858;-1.778;2022-10-23T17:05:34;1.15;;;1.1;;
22308;SDS011;11322;50.858;-1.778;2022-10-23T17:10:34;5.0;;;2.05;;
22308;SDS011;11322;50.858;-1.778;2022-10-23T17:15:34;7.45;;;2.8;;
22308;SDS011;11322;50.858;-1.778;2022-10-23T17:20:34;7.2;;;3.1;;
22308;SDS011;11322;50.858;-1.778;2022-10-23T17:25:34;6.15;;;3.4;;
22308;SDS011;11322;50.858;-1.778;2022-10-23T17:30:36;7.35;;;2.75;;
22308;SDS011;11322;50.858;-1.778;2022-10-23T17:35:34;8.8;;;2.25;;
22308;SDS011;11322;50.858;-1.778;2022-10-23T17:40:35;9.3;;;2.5;;
22308;SDS011;11322;50.858;-1.778;2022-10-23T17:45:34;3.05;;;1.25;;
22308;SDS011;11322;50.858;-1.778;2022-10-23T17:50:34;8.85;;;1.9;;
22308;SDS011;11322;50.858;-1.778;2022-10-23T17:55:36;6.85;;;1.65;;
22308;SDS011;11322;50.858;-1.778;2022-10-23T18:00:34;2.3;;;1.45;;
22308;SDS011;11322;50.858;-1.778;2022-10-23T18:05:34;6.4;;;1.65;;
22308;SDS011;11322;50.858;-1.778;2022-10-23T18:10:34;5.5;;;1.75;;
22308;SDS011;11322;50.858;-1.778;2022-10-23T18:15:34;7.8;;;1.8;;
22308;SDS011;11322;50.858;-1.778;2022-10-23T18:20:37;6.25;;;1.65;;
22308;SDS011;11322;50.858;-1.778;2022-10-23T18:25:34;9.05;;;1.7;;
22308;SDS011;11322;50.858;-1.778;2022-10-23T18:30:34;4.15;;;1.6;;
22308;SDS011;11322;50.858;-1.778;2022-10-23T18:35:34;6.75;;;2.45;;
22308;SDS011;11322;50.858;-1.778;2022-10-23T18:40:34;3.25;;;1.5;;
22308;SDS011;11322;50.858;-1.778;2022-10-23T18:45:34;9.05;;;3.65;;
22308;SDS011;11322;50.858;-1.778;2022-10-23T18:50:34;5.8;;;2.05;;
22308;SDS011;11322;50.858;-1.778;2022-10-23T18:55:34;7.95;;;1.95;;
22308;SDS011;11322;50.858;-1.778;2022-10-23T19:00:34;10.1;;;2.15;;
22308;SDS011;11322;50.858;-1.778;2022-10-23T19:05:34;12.3;;;3.4;;
22308;SDS011;11322;50.858;-1.778;2022-10-23T19:10:34;6.95;;;3.15;;
22308;SDS011;11322;50.858;-1.778;2022-10-23T19:15:34;4.55;;;2.5;;
22308;SDS011;11322;50.858;-1.778;2022-10-23T19:20:34;8.15;;;3.15;;
22308;SDS011;11322;50.858;-1.778;2022-10-23T19:25:34;6.6;;;2.4;;
22308;SDS011;11322;50.858;-1.778;2022-10-23T19:30:34;7.0;;;3.65;;
22308;SDS011;11322;50.858;-1.778;2022-10-23T19:35:34;6.7;;;2.1;;
22308;SDS011;11322;50.858;-1.778;2022-10-23T19:40:34;8.25;;;2.55;;
22308;SDS011;11322;50.858;-1.778;2022-10-23T19:45:34;4.6;;;2.2;;
22308;SDS011;11322;50.858;-1.778;2022-10-23T19:50:34;5.8;;;1.4;;
22308;SDS011;11322;50.858;-1.778;2022-10-23T19:55:34;2.9;;;0.65;;
22308;SDS011;11322;50.858;-1.778;2022-10-23T20:00:34;7.75;;;1.7;;
22308;SDS011;11322;50.858;-1.778;2022-10-23T20:05:34;2.65;;;1.15;;
22308;SDS011;11322;50.858;-1.778;2022-10-23T20:10:38;2.9;;;0.6;;
22308;SDS011;11322;50.858;-1.778;2022-10-23T20:15:34;3.25;;;1.0;;
22308;SDS011;11322;50.858;-1.778;2022-10-23T20:20:38;2.7;;;0.75;;
22308;SDS011;11322;50.858;-1.778;2022-10-23T20:25:34;1.2;;;0.7;;
22308;SDS011;11322;50.858;-1.778;2022-10-23T20:30:37;6.5;;;1.55;;
22308;SDS011;11322;50.858;-1.778;2022-10-23T20:35:37;5.55;;;1.05;;
22308;SDS011;11322;50.858;-1.778;2022-10-23T20:40:34;6.35;;;1.0;;
22308;SDS011;11322;50.858;-1.778;2022-10-23T20:45:34;1.9;;;0.9;;
22308;SDS011;11322;50.858;-1.778;2022-10-23T20:50:34;3.9;;;1.3;;
22308;SDS011;11322;50.858;-1.778;2022-10-23T20:55:35;3.0;;;1.05;;
22308;SDS011;11322;50.858;-1.778;2022-10-23T21:00:34;12.05;;;1.4;;
22308;SDS011;11322;50.858;-1.778;2022-10-23T21:05:34;3.3;;;1.05;;
22308;SDS011;11322;50.858;-1.778;2022-10-23T21:10:34;3.4;;;1.05;;
22308;SDS011;11322;50.858;-1.778;2022-10-23T21:15:34;3.6;;;0.8;;
22308;SDS011;11322;50.858;-1.778;2022-10-23T21:20:34;1.55;;;1.25;;
22308;SDS011;11322;50.858;-1.778;2022-10-23T21:25:36;5.15;;;1.25;;
22308;SDS011;11322;50.858;-1.778;2022-10-23T21:30:34;2.55;;;1.5;;
22308;SDS011;11322;50.858;-1.778;2022-10-23T21:35:34;4.15;;;0.55;;
22308;SDS011;11322;50.858;-1.778;2022-10-23T21:40:34;5.1;;;0.75;;
22308;SDS011;11322;50.858;-1.778;2022-10-23T21:45:34;3.0;;;0.9;;
22308;SDS011;11322;50.858;-1.778;2022-10-23T21:50:34;3.15;;;0.95;;
22308;SDS011;11322;50.858;-1.778;2022-10-23T21:55:34;5.8;;;2.0;;
22308;SDS011;11322;50.858;-1.778;2022-10-23T22:00:34;7.8;;;1.25;;
22308;SDS011;11322;50.858;-1.778;2022-10-23T22:05:34;11.2;;;1.8;;
22308;SDS011;11322;50.858;-1.778;2022-10-23T22:10:34;8.35;;;1.55;;
22308;SDS011;11322;50.858;-1.778;2022-10-23T22:15:34;0.35;;;0.35;;
22308;SDS011;11322;50.858;-1.778;2022-10-23T22:20:34;3.95;;;1.6;;
22308;SDS011;11322;50.858;-1.778;2022-10-23T22:25:36;7.3;;;1.1;;
22308;SDS011;11322;50.858;-1.778;2022-10-23T22:30:34;5.0;;;1.9;;
22308;SDS011;11322;50.858;-1.778;2022-10-23T22:35:34;4.8;;;1.25;;
22308;SDS011;11322;50.858;-1.778;2022-10-23T22:40:35;12.2;;;2.3;;
22308;SDS011;11322;50.858;-1.778;2022-10-23T22:45:34;8.1;;;2.15;;
22308;SDS011;11322;50.858;-1.778;2022-10-23T22:50:34;19.6;;;2.4;;
22308;SDS011;11322;50.858;-1.778;2022-10-23T22:55:34;8.35;;;1.65;;
22308;SDS011;11322;50.858;-1.778;2022-10-23T23:00:34;0.65;;;0.5;;
22308;SDS011;11322;50.858;-1.778;2022-10-23T23:05:39;5.9;;;1.15;;
22308;SDS011;11322;50.858;-1.778;2022-10-23T23:10:34;5.45;;;0.6;;
22308;SDS011;11322;50.858;-1.778;2022-10-23T23:15:37;0.6;;;0.6;;
22308;SDS011;11322;50.858;-1.778;2022-10-23T23:20:34;1.9;;;0.6;;
22308;SDS011;11322;50.858;-1.778;2022-10-23T23:25:34;1.25;;;0.6;;
22308;SDS011;11322;50.858;-1.778;2022-10-23T23:30:34;8.85;;;0.95;;
22308;SDS011;11322;50.858;-1.778;2022-10-23T23:35:37;2.0;;;0.65;;
22308;SDS011;11322;50.858;-1.778;2022-10-23T23:40:34;2.8;;;0.4;;
22308;SDS011;11322;50.858;-1.778;2022-10-23T23:45:34;5.05;;;0.5;;
22308;SDS011;11322;50.858;-1.778;2022-10-23T23:50:34;5.5;;;1.65;;
22308;SDS011;11322;50.858;-1.778;2022-10-23T23:55:34;11.7;;;1.2;;
